Time;durP1;ratioP1;P1;durP2;ratioP2;P2;SDS_P1;SDS_P2;PMS_P1;PMS_P2;Temp;Humidity;BMP_temperature;BMP_pressure;BME280_temperature;BME280_humidity;BME280_pressure;Samples;Min_cycle;Max_cycle;Signal;HPM_P1;HPM_P2
2022/03/28 00:01:34;;;;;;;9.60;4.93;;;7.40;99.90;;;;;;4903357;29;20048;-76
2022/03/28 00:04:00;;;;;;;7.60;5.03;;;7.50;99.90;;;;;;4886432;29;20527;-76
2022/03/28 00:06:26;;;;;;;5.40;4.35;;;7.40;99.90;;;;;;4902959;29;20054;-76
2022/03/28 00:08:52;;;;;;;6.80;4.65;;;7.40;99.90;;;;;;4887364;29;20048;-77
2022/03/28 00:11:19;;;;;;;6.35;4.53;;;7.40;99.90;;;;;;4902931;29;20093;-77
2022/03/28 00:13:45;;;;;;;7.65;4.72;;;7.40;99.90;;;;;;4924373;29;20111;-76
2022/03/28 00:16:12;;;;;;;6.47;4.75;;;7.30;99.90;;;;;;4900744;29;20071;-76
2022/03/28 00:18:38;;;;;;;6.57;4.75;;;7.30;99.90;;;;;;4902677;29;20060;-76
2022/03/28 00:21:03;;;;;;;8.60;5.20;;;7.30;99.90;;;;;;4902108;29;20123;-76
2022/03/28 00:23:31;;;;;;;7.07;5.20;;;7.30;99.90;;;;;;4886630;29;20127;-76
2022/03/28 00:25:57;;;;;;;6.70;4.95;;;7.30;99.90;;;;;;4901895;29;20056;-77
2022/03/28 00:28:23;;;;;;;7.45;4.97;;;7.80;99.90;;;;;;4886157;29;20083;-76
2022/03/28 00:30:49;;;;;;;7.28;4.95;;;7.20;99.90;;;;;;4904539;29;20063;-76
2022/03/28 00:33:15;;;;;;;7.88;4.65;;;7.20;99.90;;;;;;4884821;29;20048;-76
2022/03/28 00:35:41;;;;;;;6.25;4.40;;;7.20;99.90;;;;;;4901965;29;20147;-76
2022/03/28 00:38:08;;;;;;;7.55;4.30;;;7.20;99.90;;;;;;4902571;29;20482;-76
2022/03/28 00:40:34;;;;;;;5.22;3.90;;;7.20;99.90;;;;;;4908563;29;20048;-75
2022/03/28 00:43:03;;;;;;;5.35;4.22;;;7.20;99.90;;;;;;4901846;29;20037;-76
2022/03/28 00:45:31;;;;;;;7.22;4.75;;;7.30;99.90;;;;;;4872168;29;20570;-76
2022/03/28 00:47:57;;;;;;;5.97;4.65;;;7.20;99.90;;;;;;4902552;29;20052;-76
2022/03/28 00:50:23;;;;;;;8.70;4.90;;;7.20;99.90;;;;;;4886131;29;20123;-76
2022/03/28 00:52:50;;;;;;;9.15;4.80;;;7.20;99.90;;;;;;4908353;29;20593;-76
2022/03/28 00:55:16;;;;;;;8.25;4.43;;;7.20;99.90;;;;;;4904345;29;20044;-75
2022/03/28 00:57:42;;;;;;;8.32;5.53;;;7.20;99.90;;;;;;4887025;29;20506;-75
2022/03/28 01:00:12;;;;;;;8.80;5.35;;;7.20;99.90;;;;;;4878006;29;20048;-75
2022/03/28 01:02:38;;;;;;;7.28;5.53;;;7.10;99.90;;;;;;4923840;29;20445;-76
2022/03/28 01:05:05;;;;;;;11.07;7.45;;;7.20;99.90;;;;;;4885891;29;20087;-76
2022/03/28 01:07:31;;;;;;;9.52;6.95;;;7.10;99.90;;;;;;4902358;29;20103;-76
2022/03/28 01:09:59;;;;;;;10.60;7.63;;;7.10;99.90;;;;;;4887844;29;20524;-75
2022/03/28 01:12:30;;;;;;;10.85;8.52;;;7.20;99.90;;;;;;4907982;29;20059;-76
2022/03/28 01:14:57;;;;;;;15.13;9.30;;;7.10;99.90;;;;;;4892918;29;20048;-76
2022/03/28 01:20:09;;;;;;;12.60;9.00;;;7.40;99.90;;;;;;4906469;29;20048;-75
2022/03/28 01:22:35;;;;;;;13.73;9.30;;;7.20;99.90;;;;;;4890424;29;20451;-76
2022/03/28 01:25:04;;;;;;;11.02;9.00;;;7.20;99.90;;;;;;4889549;29;20051;-77
2022/03/28 01:27:31;;;;;;;11.35;8.77;;;7.20;99.90;;;;;;4904665;29;20075;-76
2022/03/28 01:29:56;;;;;;;12.98;8.40;;;7.20;99.90;;;;;;4890045;29;20044;-76
2022/03/28 01:32:22;;;;;;;10.77;8.40;;;7.20;99.90;;;;;;4921451;29;20044;-75
2022/03/28 01:34:48;;;;;;;11.07;7.80;;;7.20;99.90;;;;;;4904508;29;20051;-76
2022/03/28 01:37:13;;;;;;;10.52;7.38;;;7.20;99.90;;;;;;4891255;29;20040;-75
2022/03/28 01:39:39;;;;;;;9.23;6.47;;;7.10;99.90;;;;;;4890847;29;20044;-76
2022/03/28 01:42:05;;;;;;;8.70;6.38;;;7.10;99.90;;;;;;4905079;29;20499;-76
2022/03/28 01:44:31;;;;;;;7.18;6.13;;;7.10;99.90;;;;;;4889502;29;20048;-75
2022/03/28 01:46:57;;;;;;;8.52;6.05;;;7.10;99.90;;;;;;4905327;29;20079;-76
2022/03/28 01:49:23;;;;;;;9.15;6.05;;;7.10;99.90;;;;;;4888224;29;20569;-76
2022/03/28 01:51:49;;;;;;;6.75;5.45;;;7.00;99.90;;;;;;4906432;29;20107;-76
2022/03/28 01:54:16;;;;;;;6.10;4.82;;;7.20;99.90;;;;;;4903716;29;20059;-76
2022/03/28 01:56:42;;;;;;;5.57;4.57;;;7.00;99.90;;;;;;4889943;29;20039;-75
2022/03/28 01:59:09;;;;;;;6.95;4.50;;;7.00;99.90;;;;;;4904252;29;20053;-76
2022/03/28 02:01:35;;;;;;;7.85;4.65;;;7.00;99.90;;;;;;4905355;29;20498;-76
2022/03/28 02:04:01;;;;;;;6.63;5.05;;;7.00;99.90;;;;;;4924966;29;20569;-76
2022/03/28 02:06:28;;;;;;;8.07;4.60;;;7.00;99.90;;;;;;4895116;29;20505;-76
2022/03/28 02:08:55;;;;;;;7.18;4.82;;;7.20;99.90;;;;;;4905747;29;20049;-76
2022/03/28 02:11:20;;;;;;;6.82;4.90;;;7.00;99.90;;;;;;4905678;29;20052;-76
2022/03/28 02:13:46;;;;;;;7.78;4.47;;;7.00;99.90;;;;;;4920190;29;20059;-75
2022/03/28 02:16:13;;;;;;;7.75;4.40;;;7.00;99.90;;;;;;4889210;29;20055;-76
2022/03/28 02:18:39;;;;;;;10.68;4.70;;;7.20;99.90;;;;;;4920477;29;20071;-76
2022/03/28 02:21:05;;;;;;;5.53;4.70;;;6.90;99.90;;;;;;4888566;29;20474;-76
2022/03/28 02:23:31;;;;;;;7.30;4.60;;;6.90;99.90;;;;;;4903513;29;20498;-76
2022/03/28 02:25:57;;;;;;;6.28;4.07;;;6.90;99.90;;;;;;4904359;29;20110;-76
2022/03/28 02:28:23;;;;;;;7.65;4.63;;;6.90;99.90;;;;;;4902029;29;20040;-76
2022/03/28 02:30:49;;;;;;;6.00;4.88;;;6.90;99.90;;;;;;4887707;29;20104;-75
2022/03/28 02:33:15;;;;;;;7.47;5.10;;;6.90;99.90;;;;;;4903698;29;20048;-76
2022/03/28 02:35:41;;;;;;;5.68;4.53;;;7.30;99.90;;;;;;4884553;29;20100;-76
2022/03/28 02:38:07;;;;;;;7.10;5.10;;;6.90;99.90;;;;;;4918687;29;20470;-76
2022/03/28 02:40:34;;;;;;;8.60;4.78;;;7.20;99.90;;;;;;4919588;29;20047;-76
2022/03/28 02:43:02;;;;;;;7.38;5.38;;;6.90;99.90;;;;;;4925051;29;20055;-76
2022/03/28 02:45:31;;;;;;;5.20;4.15;;;6.80;99.90;;;;;;4902408;29;20398;-76
2022/03/28 02:47:59;;;;;;;5.57;3.95;;;5.60;99.90;;;;;;4903437;29;20058;-76
2022/03/28 02:50:25;;;;;;;8.43;4.25;;;6.90;99.90;;;;;;4887045;29;20561;-76
2022/03/28 02:52:51;;;;;;;6.38;4.32;;;6.80;99.90;;;;;;4887879;29;20055;-76
2022/03/28 02:55:17;;;;;;;4.88;3.85;;;6.80;99.90;;;;;;4919348;29;20059;-76
2022/03/28 02:57:43;;;;;;;13.13;3.60;;;6.80;99.90;;;;;;4888307;29;20410;-76
2022/03/28 03:00:10;;;;;;;4.40;3.53;;;6.70;99.90;;;;;;4872358;29;20076;-77
2022/03/28 03:02:38;;;;;;;5.22;3.65;;;6.70;99.90;;;;;;4903652;29;20058;-76
2022/03/28 03:05:05;;;;;;;5.28;3.90;;;6.70;99.90;;;;;;4887907;29;20178;-76
2022/03/28 03:07:31;;;;;;;5.05;3.67;;;6.70;99.90;;;;;;4903639;29;20571;-76
2022/03/28 03:09:57;;;;;;;6.45;3.55;;;6.70;99.90;;;;;;4873647;29;20067;-76
2022/03/28 03:12:22;;;;;;;4.43;3.67;;;7.10;99.90;;;;;;4903260;29;20055;-76
2022/03/28 03:14:48;;;;;;;8.60;3.92;;;6.70;99.90;;;;;;4902762;29;20494;-76
2022/03/28 03:17:14;;;;;;;6.78;3.45;;;6.70;99.90;;;;;;4905387;29;20051;-77
2022/03/28 03:19:40;;;;;;;6.35;3.90;;;6.70;99.90;;;;;;4889043;29;20048;-77
2022/03/28 03:22:07;;;;;;;4.55;3.13;;;6.60;99.90;;;;;;4873515;29;20056;-76
2022/03/28 03:24:34;;;;;;;10.25;3.58;;;6.60;99.90;;;;;;4886198;29;20056;-76
2022/03/28 03:27:00;;;;;;;5.93;3.38;;;6.60;99.90;;;;;;4887024;29;20056;-76
2022/03/28 03:29:26;;;;;;;8.50;3.42;;;6.60;99.90;;;;;;4919013;29;20056;-76
2022/03/28 03:31:52;;;;;;;5.95;3.45;;;6.60;99.90;;;;;;4902589;29;20044;-76
2022/03/28 03:34:19;;;;;;;7.05;3.25;;;6.60;99.90;;;;;;4901864;29;20676;-76
2022/03/28 03:36:45;;;;;;;5.65;3.08;;;6.60;99.90;;;;;;4887702;29;20083;-76
2022/03/28 03:39:11;;;;;;;4.47;3.00;;;6.60;99.90;;;;;;4886933;29;20135;-77
2022/03/28 03:41:38;;;;;;;4.00;3.13;;;6.60;99.90;;;;;;4917402;29;20131;-76
2022/03/28 03:44:04;;;;;;;4.35;3.38;;;6.60;99.90;;;;;;4902369;29;20055;-76
2022/03/28 03:46:30;;;;;;;4.93;3.13;;;6.60;99.90;;;;;;4890393;29;20089;-76
2022/03/28 03:48:55;;;;;;;5.43;3.28;;;6.60;99.90;;;;;;4872476;29;20045;-75
2022/03/28 03:51:21;;;;;;;5.13;3.35;;;6.50;99.90;;;;;;4872036;29;20060;-76
2022/03/28 03:53:48;;;;;;;5.28;3.50;;;6.50;99.90;;;;;;4887745;29;20108;-76
2022/03/28 03:56:14;;;;;;;7.45;3.60;;;6.50;99.90;;;;;;4886326;29;20735;-76
2022/03/28 03:58:40;;;;;;;6.38;4.18;;;6.50;99.90;;;;;;4893134;29;20044;-76
2022/03/28 07:06:34;;;;;;;11.10;7.65;;;6.70;99.90;;;;;;4997097;23;20071;-77
2022/03/28 07:09:04;;;;;;;9.93;7.80;;;6.70;99.90;;;;;;4909398;29;20048;-76
2022/03/28 07:11:30;;;;;;;11.18;8.85;;;6.70;99.90;;;;;;4892666;29;20404;-77
2022/03/28 07:13:56;;;;;;;11.65;8.23;;;6.80;99.90;;;;;;4892832;29;20076;-76
2022/03/28 07:16:22;;;;;;;10.73;8.52;;;6.80;99.90;;;;;;4893532;29;20084;-77
2022/03/28 07:18:47;;;;;;;9.63;8.52;;;6.80;99.90;;;;;;4908412;29;20056;-77
2022/03/28 07:21:13;;;;;;;10.68;9.15;;;6.80;99.90;;;;;;4893519;29;20059;-76
2022/03/28 07:23:39;;;;;;;10.57;8.60;;;6.90;99.90;;;;;;4893103;29;20052;-77
2022/03/28 07:26:05;;;;;;;10.35;8.45;;;7.90;99.90;;;;;;4893046;29;20132;-76
2022/03/28 07:28:31;;;;;;;9.15;8.10;;;6.90;99.90;;;;;;4878288;29;20930;-77
2022/03/28 07:30:56;;;;;;;10.32;7.55;;;7.60;99.90;;;;;;4909158;29;20116;-76
2022/03/28 07:33:22;;;;;;;9.15;7.63;;;6.90;99.90;;;;;;4892339;29;20048;-76
2022/03/28 07:35:48;;;;;;;9.80;7.28;;;6.90;99.90;;;;;;4876983;29;20481;-76
2022/03/28 07:38:15;;;;;;;10.35;7.60;;;6.90;99.90;;;;;;4877507;29;20059;-77
2022/03/28 07:40:43;;;;;;;10.68;8.23;;;6.90;99.90;;;;;;4891808;29;20135;-76
2022/03/28 07:43:08;;;;;;;9.60;7.43;;;6.90;99.90;;;;;;4892659;29;20071;-77
2022/03/28 07:45:35;;;;;;;10.63;8.07;;;6.90;99.90;;;;;;4892469;29;20494;-76
2022/03/28 07:48:02;;;;;;;10.88;8.52;;;7.00;99.90;;;;;;4892537;29;20075;-77
2022/03/28 07:50:28;;;;;;;10.32;8.70;;;7.00;99.90;;;;;;4908483;29;20059;-77
2022/03/28 07:52:53;;;;;;;8.30;7.20;;;7.00;99.90;;;;;;4892458;29;20052;-76
2022/03/28 07:55:20;;;;;;;9.02;7.72;;;7.10;99.90;;;;;;4893244;29;20044;-76
2022/03/28 07:57:46;;;;;;;9.90;7.72;;;7.10;99.90;;;;;;4891989;29;20052;-77
2022/03/28 08:00:15;;;;;;;9.38;7.43;;;7.10;99.90;;;;;;4892219;29;20513;-77
2022/03/28 08:02:41;;;;;;;10.05;7.60;;;7.20;99.90;;;;;;4891689;29;20459;-76
2022/03/28 08:05:08;;;;;;;9.20;7.32;;;7.20;99.90;;;;;;4892002;29;20048;-77
2022/03/28 08:07:35;;;;;;;8.73;6.88;;;7.30;99.90;;;;;;4875810;29;20095;-77
2022/03/28 08:10:09;;;;;;;8.30;7.28;;;7.30;99.90;;;;;;4892869;29;20071;-76
2022/03/28 08:12:37;;;;;;;8.77;6.90;;;7.30;99.90;;;;;;4891887;29;20045;-76
2022/03/28 08:15:07;;;;;;;10.15;8.23;;;7.40;99.90;;;;;;4908242;29;20605;-77
2022/03/28 08:17:35;;;;;;;9.52;8.30;;;7.40;99.90;;;;;;4892053;29;20060;-77
2022/03/28 08:20:01;;;;;;;8.95;7.03;;;7.50;99.90;;;;;;4892662;29;20055;-77
2022/03/28 08:22:27;;;;;;;10.10;7.80;;;7.50;99.90;;;;;;4892584;29;20044;-76
2022/03/28 08:24:53;;;;;;;9.82;7.97;;;7.50;99.90;;;;;;4890785;29;20364;-77
2022/03/28 08:27:18;;;;;;;14.10;8.77;;;7.60;99.90;;;;;;4893960;29;20080;-77
2022/03/28 08:29:44;;;;;;;12.02;8.32;;;7.60;99.90;;;;;;4879995;29;20490;-77
2022/03/28 08:32:10;;;;;;;14.07;8.57;;;7.60;99.90;;;;;;4880910;29;20103;-78
2022/03/28 08:34:35;;;;;;;10.27;7.75;;;7.70;99.90;;;;;;4896369;29;20060;-74
2022/03/28 08:37:02;;;;;;;12.88;7.75;;;7.70;99.90;;;;;;4880450;29;20550;-75
2022/03/28 08:39:27;;;;;;;13.35;8.07;;;7.70;99.90;;;;;;4865504;29;20499;-75
2022/03/28 08:41:55;;;;;;;10.45;8.65;;;7.70;99.90;;;;;;4878638;29;20052;-75
2022/03/28 08:44:20;;;;;;;11.38;8.48;;;7.70;99.90;;;;;;4895421;29;20812;-75
2022/03/28 08:46:48;;;;;;;9.15;7.30;;;7.70;99.90;;;;;;4895812;29;20052;-75
2022/03/28 08:49:18;;;;;;;14.10;8.60;;;7.70;99.90;;;;;;4896110;29;20471;-74
2022/03/28 08:51:43;;;;;;;10.00;7.82;;;7.80;99.90;;;;;;4895992;29;20447;-75
2022/03/28 08:54:09;;;;;;;10.35;8.10;;;7.80;99.90;;;;;;4880126;29;20052;-75
2022/03/28 08:56:35;;;;;;;10.55;8.48;;;8.40;99.90;;;;;;4895667;29;20079;-75
2022/03/28 08:59:00;;;;;;;10.00;8.07;;;7.90;99.90;;;;;;4895461;29;20048;-75
2022/03/28 09:01:27;;;;;;;11.60;8.23;;;7.90;99.90;;;;;;4895993;29;21074;-74
2022/03/28 09:03:52;;;;;;;10.07;7.45;;;8.00;99.90;;;;;;4895373;29;20052;-75
2022/03/28 09:06:36;;;;;;;10.85;8.15;;;8.00;99.90;;;;;;4895368;29;20494;-75
2022/03/28 09:09:22;;;;;;;11.50;8.30;;;8.00;99.90;;;;;;4911102;29;20064;-76
2022/03/28 09:12:04;;;;;;;9.23;7.18;;;8.10;99.90;;;;;;4894931;29;20048;-75
2022/03/28 09:14:31;;;;;;;9.43;6.88;;;8.10;99.90;;;;;;4895379;29;20059;-75
2022/03/28 09:17:12;;;;;;;9.40;7.03;;;8.10;99.90;;;;;;4879339;29;20067;-75
2022/03/28 09:19:45;;;;;;;10.68;7.22;;;8.20;99.90;;;;;;4894608;29;20060;-75
2022/03/28 09:22:16;;;;;;;8.13;6.38;;;8.20;99.90;;;;;;4894588;29;20052;-75
2022/03/28 09:24:44;;;;;;;8.95;7.10;;;8.30;99.90;;;;;;4895003;29;20140;-75
2022/03/28 09:27:11;;;;;;;9.63;7.15;;;8.30;99.90;;;;;;4895833;29;20080;-75
2022/03/28 09:30:11;;;;;;;9.43;7.05;;;8.40;99.90;;;;;;4894801;29;20108;-78
2022/03/28 09:32:57;;;;;;;9.52;6.63;;;8.40;99.90;;;;;;4877483;29;20067;-76
2022/03/28 09:35:25;;;;;;;9.20;7.25;;;8.50;99.90;;;;;;4894768;29;20080;-75
2022/03/28 09:38:02;;;;;;;9.70;7.10;;;8.60;99.90;;;;;;4894642;29;20615;-75
2022/03/28 09:40:30;;;;;;;8.90;6.97;;;8.60;99.90;;;;;;4895756;29;20056;-75
2022/03/28 09:42:57;;;;;;;10.20;7.20;;;8.70;99.90;;;;;;4894360;29;20491;-75
2022/03/28 09:45:25;;;;;;;8.40;6.70;;;8.70;99.90;;;;;;4911420;29;20059;-75
2022/03/28 09:48:15;;;;;;;8.73;6.78;;;8.70;99.90;;;;;;4895282;29;21129;-75
2022/03/28 09:50:58;;;;;;;9.45;7.13;;;8.80;99.90;;;;;;4894675;29;20087;-75
2022/03/28 09:53:41;;;;;;;9.63;7.28;;;8.90;99.90;;;;;;4893746;29;20052;-75
2022/03/28 09:56:09;;;;;;;9.80;7.28;;;9.00;99.90;;;;;;4893152;29;20053;-74
2022/03/28 09:58:45;;;;;;;9.80;7.65;;;9.10;99.90;;;;;;4893338;29;20079;-76
2022/03/28 10:01:24;;;;;;;10.07;7.40;;;9.10;99.90;;;;;;4894491;29;20540;-75
2022/03/28 10:03:55;;;;;;;10.50;7.47;;;9.20;99.90;;;;;;4893480;29;20072;-80
2022/03/28 10:06:22;;;;;;;10.35;7.32;;;9.30;99.90;;;;;;4909294;29;20576;-78
2022/03/28 10:08:49;;;;;;;9.18;7.47;;;9.30;99.90;;;;;;4892223;29;20048;-80
2022/03/28 10:11:16;;;;;;;10.85;7.50;;;9.20;99.90;;;;;;4910180;29;20049;-75
2022/03/28 10:13:42;;;;;;;11.85;7.93;;;9.30;99.90;;;;;;4877021;29;20099;-77
2022/03/28 10:16:09;;;;;;;10.57;7.97;;;9.40;99.90;;;;;;4894142;29;20379;-76
2022/03/28 10:18:41;;;;;;;12.63;8.38;;;9.50;99.90;;;;;;4893826;29;20055;-77
2022/03/28 10:21:15;;;;;;;10.63;8.20;;;9.50;99.90;;;;;;4893317;29;20052;-77
2022/03/28 10:24:01;;;;;;;10.95;8.88;;;9.70;99.90;;;;;;4893234;29;20048;-79
2022/03/28 10:26:33;;;;;;;10.13;7.57;;;9.70;99.90;;;;;;4909504;29;20052;-77
2022/03/28 10:29:07;;;;;;;9.85;7.65;;;9.70;99.90;;;;;;4908231;29;20059;-77
2022/03/28 10:31:34;;;;;;;11.43;7.78;;;9.70;99.90;;;;;;4894017;29;20507;-77
2022/03/28 10:34:02;;;;;;;10.40;8.45;;;9.70;99.90;;;;;;4907874;29;20052;-78
2022/03/28 10:36:34;;;;;;;11.45;9.25;;;9.80;99.90;;;;;;4877939;29;20372;-77
2022/03/28 10:39:35;;;;;;;11.45;8.82;;;9.70;99.90;;;;;;4906820;29;20061;-76
2022/03/28 10:42:13;;;;;;;11.27;8.55;;;9.80;99.90;;;;;;4906869;29;20045;-76
2022/03/28 10:45:07;;;;;;;10.68;8.65;;;10.00;99.90;;;;;;4894340;29;20056;-75
2022/03/28 10:48:03;;;;;;;12.63;9.07;;;10.10;99.90;;;;;;4894165;29;20060;-77
2022/03/28 10:50:43;;;;;;;11.27;8.23;;;10.30;99.90;;;;;;4893180;29;20526;-76
2022/03/28 10:53:13;;;;;;;11.07;8.68;;;10.50;99.90;;;;;;4893379;29;20415;-76
2022/03/28 10:55:53;;;;;;;10.57;8.40;;;10.50;99.90;;;;;;4894351;29;20052;-76
2022/03/28 10:58:31;;;;;;;10.73;8.20;;;10.60;99.90;;;;;;4893270;29;20063;-76
2022/03/28 11:01:09;;;;;;;10.82;8.90;;;10.70;99.90;;;;;;4893361;29;20048;-76
2022/03/28 11:03:53;;;;;;;12.02;9.55;;;10.90;99.90;;;;;;4893056;29;20063;-76
2022/03/28 11:06:40;;;;;;;10.73;8.23;;;11.00;99.90;;;;;;4877608;29;20117;-76
2022/03/28 11:09:06;;;;;;;11.57;8.23;;;11.10;99.90;;;;;;4908446;29;20065;-76
2022/03/28 11:12:00;;;;;;;12.80;9.02;;;11.20;99.90;;;;;;5075300;27;20416;-76
2022/03/28 11:14:53;;;;;;;12.23;9.35;;;11.40;99.90;;;;;;5074853;28;20055;-77
2022/03/28 11:17:22;;;;;;;11.13;8.80;;;11.40;99.90;;;;;;5075288;28;20087;-76
2022/03/28 11:20:00;;;;;;;11.15;9.02;;;11.50;99.90;;;;;;5072669;28;20048;-77
2022/03/28 11:22:45;;;;;;;12.68;8.82;;;11.60;99.90;;;;;;5107512;28;20045;-77
2022/03/28 11:25:51;;;;;;;10.90;9.35;;;11.60;99.90;;;;;;5108556;28;20056;-76
2022/03/28 11:28:23;;;;;;;11.98;8.88;;;11.60;99.90;;;;;;5057273;28;20063;-76
2022/03/28 11:30:50;;;;;;;20.48;10.23;;;11.70;99.90;;;;;;5057482;28;20080;-77
2022/03/28 11:33:38;;;;;;;23.42;9.93;;;11.70;99.90;;;;;;5107751;28;20052;-76
2022/03/28 11:36:07;;;;;;;12.93;9.88;;;11.80;99.90;;;;;;5106058;28;20545;-77
2022/03/28 11:38:42;;;;;;;11.20;8.95;;;11.80;99.90;;;;;;5074484;28;20044;-76
2022/03/28 11:41:09;;;;;;;10.55;9.27;;;11.90;99.90;;;;;;5106372;28;20585;-76
2022/03/28 11:43:36;;;;;;;13.43;9.95;;;11.90;99.90;;;;;;5065102;28;20050;-76
2022/03/28 11:46:09;;;;;;;12.65;9.75;;;11.80;99.90;;;;;;5058173;28;20056;-77
2022/03/28 11:48:35;;;;;;;13.52;10.07;;;11.80;99.90;;;;;;5074634;28;20561;-76
2022/03/28 11:51:14;;;;;;;12.93;9.90;;;11.90;99.90;;;;;;5106973;28;20064;-76
2022/03/28 11:53:40;;;;;;;10.27;9.05;;;12.00;99.90;;;;;;5072694;28;20127;-77
2022/03/28 11:56:06;;;;;;;12.93;9.65;;;12.20;99.90;;;;;;5039679;28;20174;-77
2022/03/28 11:58:32;;;;;;;10.85;9.65;;;12.70;99.90;;;;;;5073939;28;20158;-77
2022/03/28 12:01:09;;;;;;;12.80;9.07;;;13.10;99.90;;;;;;5071767;28;20554;-77
2022/03/28 12:03:37;;;;;;;14.15;10.05;;;13.30;99.90;;;;;;5089001;28;20052;-77
2022/03/28 12:06:04;;;;;;;13.23;9.75;;;13.50;99.90;;;;;;5089032;28;20092;-76
2022/03/28 12:08:30;;;;;;;11.50;10.13;;;13.90;99.90;;;;;;5070016;28;20524;-77
2022/03/28 12:10:56;;;;;;;11.77;8.85;;;14.10;99.90;;;;;;5072018;28;20061;-77
2022/03/28 12:13:24;;;;;;;10.18;8.98;;;14.10;99.90;;;;;;5053798;28;20141;-77
2022/03/28 12:15:52;;;;;;;11.73;10.18;;;14.20;99.90;;;;;;5104771;28;20041;-77
2022/03/28 12:18:23;;;;;;;12.10;9.48;;;14.40;99.90;;;;;;5104497;28;20048;-77
2022/03/28 12:20:51;;;;;;;11.80;9.60;;;14.50;99.90;;;;;;5054076;28;20125;-76
2022/03/28 12:23:20;;;;;;;12.40;9.25;;;14.40;99.90;;;;;;5058527;28;20049;-75
2022/03/28 12:25:50;;;;;;;11.73;9.25;;;14.30;99.90;;;;;;5043233;28;20057;-76
2022/03/28 12:28:24;;;;;;;9.05;8.10;;;14.20;99.90;;;;;;5074691;28;20052;-75
2022/03/28 12:30:55;;;;;;;9.25;7.72;;;14.10;99.90;;;;;;5026394;28;20044;-77
2022/03/28 12:33:26;;;;;;;9.98;8.55;;;14.00;99.90;;;;;;5025645;28;20053;-75
2022/03/28 12:36:04;;;;;;;10.32;8.57;;;13.80;99.90;;;;;;5026570;28;20049;-76
2022/03/28 12:38:41;;;;;;;9.32;8.20;;;13.70;99.90;;;;;;5042039;28;20492;-76
2022/03/28 12:41:12;;;;;;;11.73;8.57;;;13.60;99.90;;;;;;5058492;28;20127;-75
2022/03/28 12:43:45;;;;;;;9.95;8.60;;;13.60;99.90;;;;;;5043155;28;20101;-75
2022/03/28 12:46:11;;;;;;;9.40;8.07;;;13.70;99.90;;;;;;5026254;28;20446;-76
2022/03/28 12:48:44;;;;;;;9.18;7.72;;;13.80;99.90;;;;;;5092296;28;20131;-76
2022/03/28 12:51:11;;;;;;;10.57;8.10;;;13.70;99.90;;;;;;5041366;28;20040;-76
2022/03/28 12:53:41;;;;;;;9.68;8.65;;;13.40;99.90;;;;;;5058034;28;20080;-76
2022/03/28 12:56:21;;;;;;;10.40;8.10;;;13.10;99.90;;;;;;5076211;28;20040;-76
2022/03/28 12:58:59;;;;;;;10.52;9.13;;;13.10;99.90;;;;;;5058205;28;20514;-76
2022/03/28 13:01:29;;;;;;;11.63;8.77;;;13.30;99.90;;;;;;5074897;28;20107;-76
2022/03/28 13:04:17;;;;;;;11.40;8.75;;;13.40;99.90;;;;;;5042281;28;20147;-76
2022/03/28 13:07:05;;;;;;;11.95;9.45;;;13.70;99.90;;;;;;5057927;28;20045;-76
2022/03/28 13:09:30;;;;;;;9.32;8.38;;;13.80;99.90;;;;;;5075424;28;20045;-76
2022/03/28 13:12:06;;;;;;;12.30;9.45;;;13.90;99.90;;;;;;5041327;28;20116;-77
2022/03/28 13:14:33;;;;;;;9.80;8.80;;;13.90;99.90;;;;;;5073844;28;20394;-78
2022/03/28 13:17:09;;;;;;;12.13;9.02;;;13.80;99.90;;;;;;5092870;28;20041;-78
2022/03/28 13:19:53;;;;;;;9.20;8.30;;;13.70;99.90;;;;;;5040994;28;20512;-76
2022/03/28 13:22:29;;;;;;;11.60;8.60;;;13.60;99.90;;;;;;5041191;28;20494;-76
2022/03/28 13:25:09;;;;;;;11.18;8.68;;;13.60;99.90;;;;;;5057682;28;20390;-77
2022/03/28 13:30:19;;;;;;;9.95;8.68;;;13.90;99.90;;;;;;5043544;28;20049;-76
2022/03/28 13:32:45;;;;;;;9.40;8.50;;;13.90;99.90;;;;;;5057465;28;20522;-76
2022/03/28 13:35:11;;;;;;;9.73;8.50;;;13.90;99.90;;;;;;5091996;28;20045;-76
2022/03/28 13:37:37;;;;;;;9.73;8.65;;;14.00;99.90;;;;;;5026302;28;20102;-76
2022/03/28 13:40:03;;;;;;;9.13;8.13;;;14.00;99.90;;;;;;5042344;28;20057;-76
2022/03/28 13:42:29;;;;;;;9.85;8.63;;;14.20;99.90;;;;;;5042651;28;20045;-76
2022/03/28 13:44:55;;;;;;;9.48;8.38;;;14.10;99.90;;;;;;5041656;28;20052;-77
2022/03/28 13:47:20;;;;;;;9.98;8.98;;;14.20;99.90;;;;;;5057086;28;20109;-78
2022/03/28 13:49:46;;;;;;;10.85;8.70;;;14.20;99.90;;;;;;5058632;28;20037;-77
2022/03/28 13:52:12;;;;;;;10.15;9.02;;;14.20;99.90;;;;;;5040660;28;20124;-77
2022/03/28 13:54:37;;;;;;;10.27;8.90;;;14.30;99.90;;;;;;5056926;28;20060;-77
2022/03/28 13:57:03;;;;;;;11.13;9.32;;;14.20;99.90;;;;;;5043112;28;20049;-77
2022/03/28 13:59:29;;;;;;;11.13;8.98;;;14.20;99.90;;;;;;5025757;28;20045;-77
2022/03/28 14:01:55;;;;;;;9.90;8.90;;;14.10;99.90;;;;;;5040648;28;20123;-78
2022/03/28 14:04:22;;;;;;;12.25;9.13;;;14.00;99.90;;;;;;5073667;28;20113;-77
2022/03/28 14:06:48;;;;;;;10.30;9.18;;;13.90;99.90;;;;;;5058300;28;20053;-77
2022/03/28 14:09:17;;;;;;;10.50;9.40;;;13.70;99.90;;;;;;5040640;28;20051;-77
2022/03/28 14:11:43;;;;;;;10.45;8.77;;;13.60;99.90;;;;;;5025687;28;20481;-77
2022/03/28 14:14:09;;;;;;;10.95;8.88;;;13.50;99.90;;;;;;5038066;28;20084;-77
2022/03/28 14:16:35;;;;;;;11.20;9.88;;;13.40;99.90;;;;;;5038117;28;20044;-76
2022/03/28 14:19:00;;;;;;;12.02;9.48;;;13.30;99.90;;;;;;5052658;28;20048;-77
2022/03/28 14:21:27;;;;;;;9.85;8.85;;;13.10;99.90;;;;;;5041555;28;20051;-77
2022/03/28 14:23:52;;;;;;;12.73;9.60;;;12.90;99.90;;;;;;5088699;28;20072;-77
2022/03/28 14:26:20;;;;;;;11.00;9.88;;;12.80;99.90;;;;;;5041024;28;20454;-77
2022/03/28 14:28:46;;;;;;;11.85;9.73;;;12.60;99.90;;;;;;5073056;28;20052;-76
2022/03/28 14:31:12;;;;;;;10.65;9.48;;;12.50;99.90;;;;;;5039742;28;20037;-76
2022/03/28 14:33:38;;;;;;;12.65;9.98;;;12.40;99.90;;;;;;5057192;28;20627;-76
2022/03/28 14:36:05;;;;;;;11.73;10.25;;;12.40;99.90;;;;;;5025856;28;20076;-77
2022/03/28 14:38:31;;;;;;;14.13;10.35;;;12.30;99.90;;;;;;5056303;28;20118;-77
2022/03/28 14:40:57;;;;;;;10.88;9.77;;;12.30;99.90;;;;;;5057822;28;20426;-76
2022/03/28 14:43:22;;;;;;;12.32;9.23;;;12.20;99.90;;;;;;5040989;28;20089;-76
2022/03/28 14:48:35;;;;;;;11.43;10.10;;;12.20;99.90;;;;;;5086083;28;20053;-77
2022/03/28 14:51:01;;;;;;;12.93;10.43;;;12.10;99.90;;;;;;5024704;28;20053;-78
2022/03/28 14:53:27;;;;;;;12.32;10.10;;;12.20;99.90;;;;;;5054576;28;20102;-76
2022/03/28 14:55:52;;;;;;;13.23;10.45;;;12.20;99.90;;;;;;5036812;28;20466;-76
2022/03/28 14:58:18;;;;;;;12.93;10.32;;;12.20;99.90;;;;;;5053616;28;20048;-76
2022/03/28 15:00:44;;;;;;;14.77;11.18;;;12.20;99.90;;;;;;5054301;28;20044;-76
2022/03/28 15:03:10;;;;;;;12.75;10.52;;;12.20;99.90;;;;;;5036332;28;20474;-76
2022/03/28 15:05:36;;;;;;;13.20;10.98;;;12.10;99.90;;;;;;5020672;28;20123;-76
2022/03/28 15:08:04;;;;;;;12.73;10.95;;;11.90;99.90;;;;;;5087094;28;20498;-77
2022/03/28 15:10:32;;;;;;;12.30;10.10;;;11.80;99.90;;;;;;5021009;28;20053;-77
2022/03/28 15:12:58;;;;;;;13.85;11.50;;;11.80;99.90;;;;;;5021367;28;20070;-77
2022/03/28 15:15:25;;;;;;;14.15;11.20;;;11.70;99.90;;;;;;5049847;28;20053;-76
2022/03/28 15:17:51;;;;;;;14.90;11.20;;;11.60;99.90;;;;;;5039245;28;20098;-76
2022/03/28 15:20:18;;;;;;;13.23;10.23;;;11.60;99.90;;;;;;5018439;28;20045;-76
2022/03/28 15:22:44;;;;;;;15.48;12.27;;;11.50;99.90;;;;;;5052203;28;20053;-77
2022/03/28 15:25:10;;;;;;;16.77;11.73;;;11.50;99.90;;;;;;5017103;28;20123;-76
2022/03/28 15:27:36;;;;;;;15.60;11.48;;;11.40;99.90;;;;;;5032983;28;20856;-76
2022/03/28 15:30:02;;;;;;;21.20;14.40;;;11.40;99.90;;;;;;5032000;28;20076;-77
2022/03/28 15:32:29;;;;;;;20.38;15.25;;;11.40;99.90;;;;;;5017363;28;20791;-76
2022/03/28 15:34:55;;;;;;;18.95;13.02;;;11.30;99.90;;;;;;5050619;28;20049;-76
2022/03/28 15:37:23;;;;;;;15.77;11.50;;;11.30;99.90;;;;;;5014881;28;20056;-76
2022/03/28 15:39:49;;;;;;;14.38;11.60;;;11.20;99.90;;;;;;5015238;28;20056;-76
2022/03/28 15:42:16;;;;;;;16.08;12.75;;;11.20;99.90;;;;;;5085382;28;20127;-77
2022/03/28 15:44:42;;;;;;;15.73;12.32;;;11.10;99.90;;;;;;5032002;28;20137;-76
2022/03/28 15:47:08;;;;;;;14.13;11.88;;;11.10;99.90;;;;;;5049882;28;20060;-76
2022/03/28 15:49:35;;;;;;;17.33;12.82;;;11.00;99.90;;;;;;5035407;28;20048;-76
2022/03/28 15:52:02;;;;;;;17.35;13.50;;;11.00;99.90;;;;;;5050976;28;20092;-76
2022/03/28 15:54:28;;;;;;;17.42;14.40;;;11.00;99.90;;;;;;5050469;28;22445;-76
2022/03/28 15:56:54;;;;;;;16.05;13.10;;;11.00;99.90;;;;;;5006380;28;20080;-76
2022/03/28 15:59:20;;;;;;;17.45;13.55;;;11.00;99.90;;;;;;5037868;28;20145;-75
2022/03/28 16:01:48;;;;;;;19.15;13.35;;;11.00;99.90;;;;;;5023728;28;20093;-76
2022/03/28 16:04:16;;;;;;;20.58;14.05;;;11.00;99.90;;;;;;5042401;28;20045;-76
2022/03/28 16:06:43;;;;;;;35.25;19.30;;;11.00;99.90;;;;;;5055964;28;20056;-77
2022/03/28 16:09:12;;;;;;;32.05;17.65;;;11.00;99.90;;;;;;5046825;28;20148;-77